Time;durP1;ratioP1;P1;durP2;ratioP2;P2;SDS_P1;SDS_P2;PMS_P1;PMS_P2;Temp;Humidity;BMP_temperature;BMP_pressure;BME280_temperature;BME280_humidity;BME280_pressure;Samples;Min_cycle;Max_cycle;Signal;HPM_P1;HPM_P2
2023/09/23 00:00:29;;;;;;;10.90;4.25;;;;;;;19.64;63.03;94871.34;5093259;28;20046;-71
2023/09/23 00:02:57;;;;;;;12.48;4.13;;;;;;;19.80;63.30;94864.28;5094613;28;20500;-70
2023/09/23 00:05:22;;;;;;;15.88;4.40;;;;;;;19.62;63.18;94864.63;5094469;28;20405;-71
2023/09/23 00:07:49;;;;;;;13.00;5.07;;;;;;;19.61;63.54;94874.34;5094493;28;20032;-70
2023/09/23 00:10:14;;;;;;;19.88;4.47;;;;;;;19.71;62.76;94862.75;5092966;28;20132;-71
2023/09/23 00:12:43;;;;;;;11.05;4.30;;;;;;;19.65;63.81;94872.16;5092815;28;20514;-70
2023/09/23 00:15:10;;;;;;;12.80;4.55;;;;;;;19.67;64.01;94864.94;5092985;28;20024;-71
2023/09/23 00:17:36;;;;;;;13.40;4.68;;;;;;;19.57;64.07;94865.16;5092967;28;20466;-71
2023/09/23 00:20:04;;;;;;;14.25;4.78;;;;;;;19.64;64.33;94866.09;5094135;28;20027;-71
2023/09/23 00:22:30;;;;;;;11.27;4.40;;;;;;;19.48;63.05;94837.28;5092918;28;20053;-71
2023/09/23 00:24:55;;;;;;;18.63;4.60;;;;;;;19.36;63.61;94862.41;5094002;28;20028;-70
2023/09/23 00:27:21;;;;;;;14.82;4.60;;;;;;;19.39;64.24;94864.72;5094075;28;20031;-70
2023/09/23 00:29:49;;;;;;;12.57;4.53;;;;;;;19.50;63.99;94860.78;5075718;28;20036;-70
2023/09/23 00:32:16;;;;;;;9.38;4.25;;;;;;;19.56;64.56;94860.09;5093835;28;20032;-70
2023/09/23 00:34:43;;;;;;;9.98;4.32;;;;;;;19.36;64.04;94849.25;5075868;28;20028;-70
2023/09/23 00:37:08;;;;;;;14.52;4.45;;;;;;;19.27;65.10;94864.31;5092492;28;20028;-71
2023/09/23 00:39:42;;;;;;;14.20;4.80;;;;;;;19.13;64.64;94849.31;5093766;28;20039;-71
2023/09/23 00:42:10;;;;;;;14.18;4.85;;;;;;;19.03;63.69;94852.19;5093603;28;20048;-71
2023/09/23 00:44:41;;;;;;;10.35;4.15;;;;;;;19.22;64.31;94871.09;5092230;28;20084;-71
2023/09/23 00:47:07;;;;;;;10.95;4.28;;;;;;;19.25;63.51;94849.69;5091526;28;20039;-71
2023/09/23 00:49:34;;;;;;;11.93;4.72;;;;;;;19.14;63.62;94848.31;5093764;28;20032;-71
2023/09/23 00:52:01;;;;;;;11.13;4.22;;;;;;;19.17;63.56;94848.78;5093447;28;20043;-70
2023/09/23 00:54:26;;;;;;;11.70;4.55;;;;;;;19.17;63.45;94851.41;5092305;28;20111;-71
2023/09/23 00:56:52;;;;;;;11.48;4.47;;;;;;;19.19;63.33;94853.84;5093369;28;20032;-71
2023/09/23 00:59:17;;;;;;;10.38;4.35;;;;;;;19.28;63.33;94852.78;5092240;28;20044;-70
2023/09/23 01:01:43;;;;;;;11.77;4.53;;;;;;;19.26;62.81;94851.34;5093380;28;20024;-71
2023/09/23 01:04:09;;;;;;;11.85;4.47;;;;;;;19.08;63.20;94834.03;5093469;28;20423;-70
2023/09/23 01:06:35;;;;;;;11.98;4.78;;;;;;;19.18;63.17;94845.13;5093466;28;20169;-70
2023/09/23 01:09:01;;;;;;;15.25;4.55;;;;;;;19.23;63.12;94846.44;5091888;28;20498;-71
2023/09/23 01:11:27;;;;;;;13.23;4.85;;;;;;;19.27;62.49;94839.78;5092983;28;20082;-70
2023/09/23 01:13:52;;;;;;;13.25;4.88;;;;;;;19.15;62.45;94837.59;5058365;28;20032;-70
2023/09/23 01:16:18;;;;;;;16.77;4.80;;;;;;;19.16;62.83;94836.59;5093049;28;20031;-70
2023/09/23 01:18:46;;;;;;;15.00;5.18;;;;;;;19.16;62.90;94833.97;5092822;28;20110;-71
2023/09/23 01:21:12;;;;;;;13.70;4.40;;;;;;;19.04;62.81;94827.50;5093201;28;20115;-71
2023/09/23 01:23:38;;;;;;;11.73;4.45;;;;;;;19.06;62.63;94835.25;5093285;28;20082;-70
2023/09/23 01:26:07;;;;;;;13.35;4.47;;;;;;;19.12;62.71;94856.38;5074829;28;20070;-71
2023/09/23 01:28:33;;;;;;;12.88;4.57;;;;;;;19.10;63.52;94855.75;5091600;28;20028;-70
2023/09/23 01:31:02;;;;;;;11.50;4.00;;;;;;;18.97;64.04;94863.41;5092620;28;20043;-72
2023/09/23 01:33:28;;;;;;;12.98;4.95;;;;;;;18.87;64.11;94862.88;5074582;28;20059;-71
2023/09/23 01:35:57;;;;;;;13.10;4.82;;;;;;;18.98;64.81;94859.81;5091373;28;20024;-71
2023/09/23 01:38:23;;;;;;;12.75;4.22;;;;;;;18.85;64.90;94851.69;5075106;28;20109;-70
2023/09/23 01:40:49;;;;;;;12.75;5.18;;;;;;;18.79;65.40;94852.41;5092527;28;20028;-71
2023/09/23 01:43:14;;;;;;;12.43;4.75;;;;;;;18.84;65.59;94855.31;5091420;28;20497;-71
2023/09/23 01:45:39;;;;;;;9.57;4.75;;;;;;;18.71;64.98;94848.78;5092469;28;20032;-70
2023/09/23 01:48:05;;;;;;;13.35;4.80;;;;;;;18.78;64.82;94850.75;5092756;28;20028;-71
2023/09/23 01:50:30;;;;;;;10.05;4.10;;;;;;;18.71;64.26;94853.25;5092364;28;20117;-71
2023/09/23 01:52:59;;;;;;;12.98;4.78;;;;;;;18.45;63.91;94822.84;5092595;28;20474;-71
2023/09/23 01:55:25;;;;;;;15.68;4.57;;;;;;;18.82;62.62;94850.22;5091054;28;20504;-71
2023/09/23 01:57:50;;;;;;;13.63;4.65;;;;;;;18.84;63.79;94852.69;5090532;28;20075;-71
2023/09/23 02:00:21;;;;;;;13.77;4.05;;;;;;;18.67;64.83;94846.72;5091013;28;20034;-71
2023/09/23 02:03:05;;;;;;;12.77;4.40;;;;;;;18.65;65.12;94860.03;5091025;28;20035;-71
2023/09/23 02:05:31;;;;;;;13.57;4.40;;;;;;;18.59;65.42;94866.00;5092013;28;20024;-71
2023/09/23 02:07:56;;;;;;;11.55;4.18;;;;;;;18.52;65.12;94857.97;5092246;28;20047;-71
2023/09/23 02:10:24;;;;;;;9.70;4.60;;;;;;;18.65;65.32;94867.91;5091958;28;20024;-71
2023/09/23 02:12:49;;;;;;;10.88;4.57;;;;;;;18.51;65.63;94852.91;5090754;28;20040;-71
2023/09/23 02:15:15;;;;;;;8.52;4.45;;;;;;;18.41;66.19;94860.19;5092154;28;20076;-71
2023/09/23 02:17:42;;;;;;;13.10;4.88;;;;;;;18.29;66.42;94857.13;5092056;28;20421;-71
2023/09/23 02:20:26;;;;;;;12.77;4.70;;;;;;;17.97;67.29;94866.00;5091818;28;20053;-71
2023/09/23 02:22:53;;;;;;;10.02;4.97;;;;;;;18.14;67.12;94866.75;5076265;28;20032;-71
2023/09/23 02:25:18;;;;;;;17.27;4.70;;;;;;;17.83;67.83;94871.00;5090555;28;20016;-71
2023/09/23 02:27:44;;;;;;;12.20;4.60;;;;;;;17.77;67.87;94876.06;5073576;28;20039;-71
2023/09/23 02:30:10;;;;;;;16.70;4.95;;;;;;;17.89;68.05;94872.13;5056920;28;20126;-71
2023/09/23 02:32:40;;;;;;;16.25;4.90;;;;;;;17.35;68.70;94864.84;5091928;28;20402;-71
2023/09/23 02:35:12;;;;;;;13.65;4.53;;;;;;;17.28;69.55;94876.19;5056852;28;20024;-71
2023/09/23 02:37:48;;;;;;;13.43;5.40;;;;;;;17.27;69.54;94880.59;5074300;28;20039;-71
2023/09/23 02:40:16;;;;;;;11.77;4.70;;;;;;;17.19;69.61;94878.03;5090464;28;20036;-71
2023/09/23 02:42:42;;;;;;;12.50;4.88;;;;;;;17.18;70.16;94879.00;5090202;28;20044;-71
2023/09/23 02:45:09;;;;;;;10.48;4.85;;;;;;;17.10;69.95;94874.56;5073387;28;20409;-71
2023/09/23 02:47:35;;;;;;;12.57;4.70;;;;;;;17.39;70.10;94886.34;5090132;28;20032;-71
2023/09/23 02:50:02;;;;;;;10.75;5.05;;;;;;;17.31;69.77;94879.31;5090070;28;20409;-71
2023/09/23 02:52:28;;;;;;;9.82;4.68;;;;;;;17.42;69.00;94881.59;5090072;28;20122;-71
2023/09/23 02:54:56;;;;;;;14.73;5.38;;;;;;;17.57;68.79;94892.22;5056395;28;20501;-71
2023/09/23 02:57:22;;;;;;;13.15;4.63;;;;;;;17.71;68.03;94893.31;5091232;28;20052;-71
2023/09/23 02:59:56;;;;;;;8.57;3.97;;;;;;;17.66;68.06;94893.00;5073010;28;20101;-71
2023/09/23 03:02:24;;;;;;;12.27;4.53;;;;;;;17.83;67.40;94899.91;5090032;28;20115;-71
2023/09/23 03:04:58;;;;;;;10.02;4.40;;;;;;;17.89;66.97;94900.22;5073221;28;20027;-71
2023/09/23 03:07:25;;;;;;;7.68;4.20;;;;;;;17.92;67.00;94902.50;5089949;28;20390;-71
2023/09/23 03:09:55;;;;;;;13.55;4.65;;;;;;;17.77;66.84;94890.00;5090323;28;20016;-71
2023/09/23 03:12:23;;;;;;;12.80;4.30;;;;;;;17.99;66.70;94913.97;5089668;28;20036;-71
2023/09/23 03:14:51;;;;;;;12.80;5.35;;;;;;;17.94;66.24;94903.13;5089773;28;20028;-71
2023/09/23 03:17:21;;;;;;;9.48;4.65;;;;;;;18.04;66.04;94914.28;5073386;28;20083;-71
2023/09/23 03:19:50;;;;;;;12.10;4.60;;;;;;;17.99;65.90;94900.81;5089789;28;20128;-71
2023/09/23 03:22:15;;;;;;;13.63;4.55;;;;;;;18.04;65.82;94901.13;5089778;28;20036;-71
2023/09/23 03:24:41;;;;;;;9.52;4.40;;;;;;;18.05;65.68;94902.75;5072858;28;20032;-71
2023/09/23 03:27:06;;;;;;;12.27;4.93;;;;;;;17.99;65.61;94896.38;5089640;28;20044;-71
2023/09/23 03:29:32;;;;;;;8.00;4.15;;;;;;;18.02;65.54;94895.22;5089645;28;20024;-71
2023/09/23 03:31:58;;;;;;;14.60;4.55;;;;;;;18.08;65.39;94895.38;5089418;28;20031;-71
2023/09/23 03:34:25;;;;;;;10.13;4.25;;;;;;;18.03;65.89;94908.19;5091003;28;20032;-72
2023/09/23 03:36:54;;;;;;;14.23;6.00;;;;;;;18.06;65.50;94909.66;5090738;28;20521;-71
2023/09/23 03:39:20;;;;;;;16.02;4.93;;;;;;;18.03;65.55;94908.19;5089565;28;20028;-71
2023/09/23 03:41:46;;;;;;;11.93;4.50;;;;;;;17.84;66.13;94896.28;5089483;28;20078;-71
2023/09/23 03:44:14;;;;;;;12.48;5.05;;;;;;;17.93;66.15;94904.13;5072800;28;20036;-71
2023/09/23 03:46:40;;;;;;;14.02;4.95;;;;;;;17.83;66.41;94902.53;5089380;28;20035;-71
2023/09/23 03:49:06;;;;;;;11.25;5.00;;;;;;;17.78;66.48;94890.84;5072539;28;20034;-71
2023/09/23 03:51:31;;;;;;;11.82;4.75;;;;;;;17.82;66.51;94900.88;5090547;28;20024;-71
2023/09/23 03:53:57;;;;;;;12.98;5.10;;;;;;;17.74;66.89;94911.38;5090629;28;20036;-71
2023/09/23 03:56:24;;;;;;;13.52;5.30;;;;;;;17.60;67.10;94907.63;5072637;28;20306;-71
2023/09/23 03:58:56;;;;;;;11.40;5.00;;;;;;;17.55;67.48;94909.13;5089321;28;20048;-71
2023/09/23 04:01:24;;;;;;;10.07;4.30;;;;;;;17.53;67.35;94898.78;5090486;28;20531;-72
2023/09/23 04:03:51;;;;;;;8.80;4.93;;;;;;;17.55;67.20;94909.13;5072705;28;20456;-71
2023/09/23 04:06:16;;;;;;;12.05;4.53;;;;;;;17.56;67.28;94910.78;5072652;28;20024;-71
2023/09/23 04:08:41;;;;;;;12.07;4.70;;;;;;;17.52;66.89;94902.38;5089368;28;20107;-71
2023/09/23 04:11:10;;;;;;;19.75;5.13;;;;;;;17.44;66.94;94891.94;5090454;28;20028;-71
2023/09/23 04:13:37;;;;;;;15.50;5.63;;;;;;;17.33;66.71;94874.72;5089379;28;20032;-71
2023/09/23 04:16:03;;;;;;;12.25;4.65;;;;;;;17.51;66.37;94892.06;5089190;28;20107;-71
2023/09/23 04:18:28;;;;;;;13.68;4.40;;;;;;;17.56;66.33;94905.53;5089085;28;20550;-71
2023/09/23 04:20:54;;;;;;;13.60;4.53;;;;;;;17.52;66.37;94904.19;5091450;28;20085;-71
2023/09/23 04:23:20;;;;;;;11.48;4.45;;;;;;;17.66;66.17;94919.28;5093007;28;20050;-71
2023/09/23 04:25:45;;;;;;;13.85;4.68;;;;;;;17.52;66.49;94920.78;5092843;28;20103;-71
2023/09/23 04:28:11;;;;;;;12.00;4.40;;;;;;;17.31;66.24;94875.88;5094243;28;20402;-71
2023/09/23 04:30:37;;;;;;;14.70;4.63;;;;;;;17.54;66.19;94924.06;5075683;28;20077;-71
2023/09/23 04:33:02;;;;;;;12.70;4.43;;;;;;;17.52;66.54;94941.78;5059278;28;20044;-71
2023/09/23 04:35:29;;;;;;;12.05;5.18;;;;;;;17.48;66.52;94937.06;5094085;28;20031;-71
2023/09/23 04:37:55;;;;;;;9.55;5.15;;;;;;;17.37;66.72;94931.16;5092418;28;20052;-71
2023/09/23 04:40:20;;;;;;;14.05;4.53;;;;;;;17.35;67.00;94934.91;5093765;28;20089;-71
2023/09/23 04:42:48;;;;;;;11.45;5.18;;;;;;;17.39;66.51;94942.31;5075632;28;20077;-71
2023/09/23 04:45:13;;;;;;;12.20;4.30;;;;;;;17.41;66.57;94950.00;5093615;28;20103;-71
2023/09/23 04:47:40;;;;;;;12.32;4.57;;;;;;;17.56;66.21;94965.94;5075571;28;20406;-71
2023/09/23 04:50:07;;;;;;;12.23;4.43;;;;;;;17.55;66.17;94962.50;5092361;28;20093;-71
2023/09/23 04:52:32;;;;;;;13.35;4.82;;;;;;;17.55;66.05;94956.38;5093491;28;20036;-71
2023/09/23 04:54:58;;;;;;;11.20;4.28;;;;;;;17.56;66.10;94963.31;5092302;28;20031;-71
2023/09/23 04:57:23;;;;;;;11.48;4.82;;;;;;;17.61;65.97;94956.56;5093285;28;20391;-71
2023/09/23 04:59:49;;;;;;;9.32;4.32;;;;;;;17.68;65.93;94961.16;5092147;28;20028;-71
2023/09/23 05:02:15;;;;;;;8.82;4.38;;;;;;;17.78;65.41;94967.88;5092252;28;20036;-71
2023/09/23 05:04:41;;;;;;;13.02;4.65;;;;;;;17.76;65.75;94963.75;5093534;28;20150;-71
2023/09/23 05:07:06;;;;;;;8.70;4.20;;;;;;;17.83;65.56;94964.78;5092016;28;20036;-71
2023/09/23 05:09:31;;;;;;;13.57;4.72;;;;;;;17.85;65.26;94970.66;5093237;28;20027;-71
2023/09/23 05:11:57;;;;;;;10.27;4.65;;;;;;;17.81;65.39;94978.06;5093093;28;20036;-71
2023/09/23 05:14:25;;;;;;;11.45;4.57;;;;;;;17.74;65.41;94958.66;5058342;28;20035;-71
2023/09/23 05:16:51;;;;;;;11.73;4.03;;;;;;;17.94;65.26;94971.44;5075110;28;20123;-71
2023/09/23 05:19:19;;;;;;;11.57;4.80;;;;;;;17.91;65.42;94954.22;5093024;28;20103;-71
2023/09/23 05:21:47;;;;;;;8.80;4.35;;;;;;;18.12;64.95;94979.94;5093113;28;20093;-71
2023/09/23 05:24:13;;;;;;;9.00;4.07;;;;;;;18.29;64.43;94972.81;5091637;28;20965;-71
2023/09/23 05:26:40;;;;;;;12.68;4.35;;;;;;;18.28;64.02;94964.13;5092858;28;20024;-71
2023/09/23 05:29:05;;;;;;;13.00;4.22;;;;;;;18.38;63.59;94949.94;5092733;28;20452;-71
2023/09/23 05:31:31;;;;;;;10.95;4.15;;;;;;;18.54;63.14;94968.28;5090766;28;20028;-71
2023/09/23 05:33:56;;;;;;;17.67;4.65;;;;;;;18.61;62.52;94971.88;5091404;28;20085;-71
2023/09/23 05:36:22;;;;;;;11.23;4.03;;;;;;;18.63;62.57;94961.97;5092602;28;20028;-71
2023/09/23 05:38:47;;;;;;;18.98;5.55;;;;;;;18.83;62.03;94972.09;5091278;28;20028;-71
2023/09/23 05:41:13;;;;;;;9.93;4.47;;;;;;;19.06;61.17;94974.75;5092867;28;20429;-70
2023/09/23 05:43:39;;;;;;;14.73;5.07;;;;;;;19.08;61.23;94968.28;5074630;28;20391;-71
2023/09/23 05:46:05;;;;;;;10.77;4.30;;;;;;;19.32;60.81;94974.38;5091257;28;20065;-71
2023/09/23 05:48:31;;;;;;;13.32;4.72;;;;;;;19.59;60.14;94973.84;5074198;28;20452;-71
2023/09/23 05:51:04;;;;;;;13.27;4.88;;;;;;;19.68;61.10;94984.31;5091042;28;20040;-71
2023/09/23 05:53:30;;;;;;;19.17;5.97;;;;;;;20.24;59.86;94979.47;5091311;28;20115;-71
2023/09/23 05:55:56;;;;;;;10.30;4.40;;;;;;;20.56;59.70;94994.13;5092258;28;20024;-71
2023/09/23 05:58:21;;;;;;;11.55;4.93;;;;;;;20.86;58.92;94986.94;5092222;28;20423;-71
2023/09/23 06:00:47;;;;;;;12.93;4.80;;;;;;;20.57;60.84;94987.84;5090984;28;20020;-71
2023/09/23 06:03:12;;;;;;;11.27;5.22;;;;;;;20.80;59.94;94986.88;5092497;28;20405;-71
2023/09/23 06:05:39;;;;;;;14.80;5.03;;;;;;;20.71;60.60;94986.16;5092053;28;20020;-71
2023/09/23 06:08:04;;;;;;;13.65;4.55;;;;;;;20.94;60.37;94978.09;5090900;28;20052;-71
2023/09/23 06:10:31;;;;;;;11.68;5.00;;;;;;;21.31;58.93;94969.13;5091897;28;20032;-71
2023/09/23 06:12:56;;;;;;;19.80;4.80;;;;;;;21.63;58.72;94980.19;5074080;28;20032;-71
2023/09/23 06:15:22;;;;;;;12.23;5.85;;;;;;;21.38;58.85;94975.31;5090740;28;20028;-71
2023/09/23 06:17:48;;;;;;;13.27;5.20;;;;;;;21.54;59.09;94994.56;5073570;28;20028;-71
2023/09/23 06:20:13;;;;;;;11.02;4.90;;;;;;;21.38;58.57;94983.25;5091840;28;20028;-71
2023/09/23 06:22:40;;;;;;;14.18;4.40;;;;;;;21.65;58.25;95001.97;5090525;28;20039;-71
2023/09/23 06:25:05;;;;;;;9.48;4.90;;;;;;;21.69;57.45;94987.34;5091731;28;20020;-71
2023/09/23 06:27:31;;;;;;;13.38;5.05;;;;;;;22.18;56.46;94988.34;5091950;28;20036;-71
2023/09/23 06:29:56;;;;;;;12.73;4.82;;;;;;;22.32;55.35;94981.31;5091675;28;20071;-71
2023/09/23 06:32:22;;;;;;;13.30;5.28;;;;;;;22.28;56.08;94994.91;5073316;28;20031;-71
2023/09/23 06:34:47;;;;;;;11.25;4.93;;;;;;;22.19;56.44;94988.13;5091578;28;20032;-71
2023/09/23 06:37:12;;;;;;;12.00;4.75;;;;;;;22.47;55.97;94997.84;5090303;28;20040;-71
2023/09/23 06:39:38;;;;;;;13.32;4.70;;;;;;;22.51;55.65;94985.84;5090242;28;20044;-71
2023/09/23 06:42:04;;;;;;;11.80;4.93;;;;;;;23.02;55.48;94998.72;5090205;28;20024;-71
2023/09/23 06:44:29;;;;;;;10.85;5.13;;;;;;;23.17;54.39;94995.91;5090498;28;20478;-71
2023/09/23 06:46:54;;;;;;;12.90;5.13;;;;;;;23.30;53.73;95003.88;5091318;28;20036;-71
2023/09/23 06:49:20;;;;;;;11.65;5.15;;;;;;;23.14;53.83;95002.41;5091347;28;20024;-71
2023/09/23 06:51:45;;;;;;;11.70;4.65;;;;;;;23.25;53.31;95002.84;5091178;28;20040;-72
2023/09/23 06:54:11;;;;;;;12.95;4.82;;;;;;;23.15;53.78;95003.22;5090004;28;20426;-71
2023/09/23 06:56:37;;;;;;;14.93;5.13;;;;;;;23.13;53.68;94992.84;5091266;28;20416;-71
2023/09/23 06:59:03;;;;;;;12.23;4.57;;;;;;;23.58;53.05;95016.97;5089917;28;20503;-70
2023/09/23 07:01:28;;;;;;;13.48;4.53;;;;;;;23.89;51.81;95002.31;5091385;28;20023;-70
2023/09/23 07:03:53;;;;;;;11.30;4.95;;;;;;;23.72;52.57;94999.25;5091389;28;20501;-71
2023/09/23 07:06:19;;;;;;;13.68;5.32;;;;;;;23.94;52.53;95017.63;5089951;28;20040;-70
2023/09/23 07:08:44;;;;;;;12.55;5.13;;;;;;;24.14;52.39;95023.72;5090866;28;20036;-71
2023/09/23 07:11:13;;;;;;;13.10;5.05;;;;;;;24.62;51.22;95004.03;5091012;28;20425;-70
2023/09/23 07:13:39;;;;;;;8.27;4.53;;;;;;;24.53;50.83;95000.81;5091387;28;20033;-70
2023/09/23 07:16:05;;;;;;;12.93;4.68;;;;;;;24.86;50.73;95002.53;5090025;28;20028;-72
2023/09/23 07:18:30;;;;;;;17.23;5.20;;;;;;;25.10;49.86;94988.53;5091294;28;20481;-70
2023/09/23 07:20:59;;;;;;;18.48;5.60;;;;;;;25.24;49.60;94997.28;5090879;28;20032;-71
2023/09/23 07:23:25;;;;;;;16.60;5.10;;;;;;;25.07;50.31;94993.44;5089534;28;20489;-70
2023/09/23 07:25:50;;;;;;;12.20;4.95;;;;;;;24.90;50.16;94995.75;5072779;28;20043;-70
2023/09/23 07:28:16;;;;;;;11.73;4.10;;;;;;;25.19;49.74;95005.06;5073029;28;20039;-70
2023/09/23 07:30:41;;;;;;;14.25;4.93;;;;;;;25.31;49.38;95003.34;5089536;28;20510;-70
2023/09/23 07:33:07;;;;;;;15.70;4.68;;;;;;;25.28;49.23;95001.13;5091182;28;20024;-70
2023/09/23 07:35:32;;;;;;;12.43;4.80;;;;;;;24.87;50.16;94991.69;5090793;28;20028;-70
2023/09/23 07:38:01;;;;;;;8.82;4.70;;;;;;;25.17;49.79;94997.28;5089374;28;20043;-70
2023/09/23 07:40:27;;;;;;;11.18;4.65;;;;;;;25.37;49.29;94994.50;5090966;28;20474;-70
2023/09/23 07:42:52;;;;;;;14.82;4.75;;;;;;;25.51;49.27;95002.41;5072710;28;20039;-71
2023/09/23 07:45:18;;;;;;;14.38;4.30;;;;;;;25.80;47.85;94991.16;5089554;28;20444;-70
2023/09/23 07:47:43;;;;;;;11.98;4.97;;;;;;;25.72;47.20;94983.44;5072671;28;20047;-70
2023/09/23 07:50:09;;;;;;;13.55;5.07;;;;;;;25.67;47.24;94979.78;5090702;28;20031;-70
2023/09/23 07:52:34;;;;;;;13.57;4.78;;;;;;;25.69;47.34;94991.03;5055793;28;20028;-70
2023/09/23 07:55:00;;;;;;;12.40;4.82;;;;;;;26.00;47.41;95000.84;5090530;28;20036;-70
2023/09/23 07:57:25;;;;;;;9.40;4.10;;;;;;;25.85;47.14;94983.34;5094500;28;20055;-70
2023/09/23 07:59:51;;;;;;;13.25;5.13;;;;;;;25.94;46.93;94980.44;5093399;28;20032;-70
2023/09/23 08:02:16;;;;;;;12.43;4.70;;;;;;;26.04;47.14;94992.19;5094669;28;20043;-70
2023/09/23 08:04:42;;;;;;;11.60;4.05;;;;;;;26.17;45.16;94991.25;5076345;28;20021;-70
2023/09/23 08:07:07;;;;;;;10.13;4.80;;;;;;;26.14;45.81;94991.69;5094519;28;20501;-71
2023/09/23 08:09:32;;;;;;;12.25;4.20;;;;;;;26.17;44.57;94983.25;5093174;28;20035;-70
2023/09/23 08:11:58;;;;;;;12.45;4.20;;;;;;;26.40;44.54;94984.47;5094250;28;20032;-70
2023/09/23 08:14:24;;;;;;;15.05;4.78;;;;;;;26.22;44.01;94988.75;5094297;28;20039;-70
2023/09/23 08:16:50;;;;;;;12.55;3.90;;;;;;;26.24;43.22;94986.69;5076111;28;20093;-70
2023/09/23 08:19:16;;;;;;;14.02;4.03;;;;;;;26.25;42.41;94982.16;5094178;28;20489;-70
2023/09/23 08:21:41;;;;;;;22.33;4.53;;;;;;;26.46;42.35;94984.38;5092928;28;20036;-71
2023/09/23 08:24:07;;;;;;;14.52;4.03;;;;;;;26.38;42.24;94981.19;5075887;28;20478;-70
2023/09/23 08:26:33;;;;;;;12.23;4.22;;;;;;;26.36;41.73;94984.09;5094014;28;20020;-70
2023/09/23 08:28:58;;;;;;;12.88;3.80;;;;;;;26.20;42.34;94982.81;5092646;28;20020;-70
2023/09/23 08:31:24;;;;;;;12.20;3.92;;;;;;;26.15;41.34;94955.22;5094067;28;20089;-70
2023/09/23 08:33:49;;;;;;;12.95;3.97;;;;;;;26.46;41.15;94970.25;5093814;28;20028;-71
2023/09/23 08:36:15;;;;;;;14.02;4.07;;;;;;;26.86;40.27;94978.63;5093900;28;20024;-70
2023/09/23 08:38:41;;;;;;;11.00;4.03;;;;;;;26.82;40.57;94979.31;5094171;28;20032;-70
2023/09/23 08:41:07;;;;;;;12.05;4.13;;;;;;;26.52;39.35;94940.09;5092599;28;20048;-70
2023/09/23 08:43:38;;;;;;;14.45;4.25;;;;;;;26.86;39.38;94965.31;5092579;28;20456;-70
2023/09/23 08:46:07;;;;;;;14.23;4.13;;;;;;;26.99;40.34;94972.31;5076489;28;20040;-70
2023/09/23 08:48:33;;;;;;;11.32;4.20;;;;;;;26.84;40.41;94958.59;5075746;28;20032;-70
2023/09/23 08:51:00;;;;;;;15.25;5.20;;;;;;;26.83;40.97;94965.75;5092267;28;20028;-71
2023/09/23 08:53:26;;;;;;;12.10;4.30;;;;;;;26.94;40.37;94967.66;5075590;28;20032;-70
2023/09/23 08:55:53;;;;;;;13.20;4.82;;;;;;;26.99;40.29;94953.66;5092283;28;20112;-71
2023/09/23 08:58:19;;;;;;;16.00;4.50;;;;;;;27.24;40.23;94963.41;5059099;28;20425;-70
2023/09/23 09:00:46;;;;;;;15.20;4.50;;;;;;;27.03;40.71;94956.69;5075197;28;20035;-70
2023/09/23 09:03:12;;;;;;;15.18;4.28;;;;;;;27.21;39.51;94943.34;5093623;28;20035;-70
2023/09/23 09:05:41;;;;;;;13.88;3.92;;;;;;;27.42;39.44;94943.88;5093171;28;20494;-70
2023/09/23 09:08:06;;;;;;;12.77;4.15;;;;;;;27.38;40.26;94949.63;5091223;28;20036;-70
2023/09/23 09:10:32;;;;;;;12.93;4.18;;;;;;;27.30;40.62;94941.16;5091987;28;20419;-70
2023/09/23 09:13:00;;;;;;;15.60;4.40;;;;;;;27.11;40.49;94949.19;5075062;28;20051;-70
2023/09/23 09:15:26;;;;;;;13.75;4.65;;;;;;;27.16;40.03;94949.38;5093089;28;20482;-70
2023/09/23 09:17:51;;;;;;;13.15;4.60;;;;;;;27.34;39.88;94948.47;5093247;28;20101;-70
2023/09/23 09:20:17;;;;;;;17.17;4.22;;;;;;;27.40;39.66;94957.41;5093054;28;20028;-70
2023/09/23 09:22:44;;;;;;;13.07;3.80;;;;;;;27.46;39.50;94945.03;5075067;28;20056;-70
2023/09/23 09:25:12;;;;;;;13.43;4.05;;;;;;;27.28;39.18;94930.72;5074993;28;20024;-71
2023/09/23 09:27:37;;;;;;;18.10;4.20;;;;;;;27.39;38.94;94945.13;5091634;28;20089;-70
2023/09/23 09:30:11;;;;;;;15.95;4.55;;;;;;;27.33;38.56;94928.19;5092830;28;20024;-70
2023/09/23 09:32:36;;;;;;;14.38;4.10;;;;;;;27.29;37.03;94934.19;5092880;28;20036;-71
2023/09/23 09:35:02;;;;;;;11.82;3.90;;;;;;;27.45;37.84;94938.88;5074747;28;20035;-70
2023/09/23 09:37:27;;;;;;;14.40;4.28;;;;;;;27.52;38.36;94933.44;5058033;28;20486;-70
2023/09/23 09:39:56;;;;;;;15.10;3.90;;;;;;;27.49;37.98;94931.22;5074497;28;20411;-70
2023/09/23 09:42:30;;;;;;;14.73;4.07;;;;;;;27.39;38.29;94919.28;5074632;28;20040;-70
2023/09/23 09:44:55;;;;;;;13.48;3.88;;;;;;;27.32;37.18;94913.22;5074684;28;20027;-70
2023/09/23 09:47:21;;;;;;;11.15;4.00;;;;;;;27.49;37.42;94918.69;5091252;28;20055;-70
2023/09/23 09:49:52;;;;;;;18.52;4.00;;;;;;;27.50;38.27;94924.88;5074403;28;20028;-71
2023/09/23 09:52:18;;;;;;;;;;;;;;;27.47;37.19;94915.47;5091460;28;20036;-70
2023/09/23 09:54:44;;;;;;;20.08;4.40;;;;;;;27.50;38.38;94909.66;5091349;28;20302;-71
2023/09/23 09:57:12;;;;;;;12.95;3.90;;;;;;;27.47;37.88;94899.47;5074193;28;20031;-70
2023/09/23 09:59:39;;;;;;;10.43;3.88;;;;;;;27.65;37.68;94901.22;5074865;28;20442;-70
2023/09/23 10:02:05;;;;;;;21.70;3.97;;;;;;;27.50;37.20;94899.00;5090993;28;20032;-70
2023/09/23 10:04:33;;;;;;;18.40;4.88;;;;;;;27.44;38.38;94901.75;5090988;28;20016;-70
2023/09/23 10:06:59;;;;;;;11.82;3.92;;;;;;;27.42;38.45;94891.34;5090760;28;20036;-70
2023/09/23 10:09:28;;;;;;;15.50;3.95;;;;;;;27.80;38.29;94885.59;5073956;28;20032;-71
2023/09/23 10:11:54;;;;;;;11.10;3.83;;;;;;;27.85;38.54;94898.22;5090720;28;20028;-70
2023/09/23 10:14:20;;;;;;;13.65;4.20;;;;;;;28.05;38.11;94889.84;5092179;28;20035;-70
2023/09/23 10:16:50;;;;;;;16.27;3.92;;;;;;;28.12;38.00;94879.88;5090575;28;20032;-70
2023/09/23 10:19:15;;;;;;;18.23;4.38;;;;;;;27.97;38.12;94869.69;5057063;28;20035;-70
2023/09/23 10:21:44;;;;;;;13.63;4.15;;;;;;;28.21;37.77;94867.75;5073778;28;20040;-71
2023/09/23 10:24:09;;;;;;;15.98;3.85;;;;;;;28.14;37.95;94858.25;5073590;28;20409;-70
2023/09/23 10:26:39;;;;;;;12.27;3.85;;;;;;;28.05;38.22;94857.81;5073590;28;20027;-70
2023/09/23 10:29:05;;;;;;;16.88;4.15;;;;;;;28.16;38.23;94859.66;5091644;28;20028;-70
2023/09/23 10:31:31;;;;;;;15.27;4.22;;;;;;;28.28;38.51;94851.63;5091482;28;20039;-70
2023/09/23 10:33:57;;;;;;;14.57;4.25;;;;;;;28.46;37.89;94838.13;5090357;28;20031;-70
2023/09/23 10:36:23;;;;;;;17.00;3.88;;;;;;;28.52;38.28;94839.81;5090287;28;20488;-70
2023/09/23 10:38:48;;;;;;;16.60;4.60;;;;;;;28.34;37.75;94834.66;5090249;28;20052;-70
2023/09/23 10:41:13;;;;;;;13.98;4.20;;;;;;;28.56;37.73;94836.72;5091460;28;20020;-71
2023/09/23 10:43:39;;;;;;;18.08;4.22;;;;;;;28.55;36.81;94840.41;5091898;28;20044;-70
2023/09/23 10:46:05;;;;;;;14.07;4.13;;;;;;;28.77;36.63;94833.34;5073440;28;20405;-70
2023/09/23 10:48:31;;;;;;;18.17;4.20;;;;;;;28.79;36.71;94835.78;5091752;28;20105;-70
2023/09/23 10:51:00;;;;;;;12.07;3.85;;;;;;;28.61;36.85;94834.09;5090259;28;20444;-70
2023/09/23 10:53:27;;;;;;;22.38;4.78;;;;;;;28.63;37.38;94832.81;5090210;28;20042;-70
2023/09/23 10:55:53;;;;;;;18.45;4.70;;;;;;;28.64;37.61;94834.47;5090026;28;20040;-70
2023/09/23 10:58:18;;;;;;;15.63;4.03;;;;;;;28.49;36.61;94828.81;5091303;28;20394;-70
2023/09/23 11:00:44;;;;;;;9.80;3.83;;;;;;;28.67;36.57;94817.94;5091192;28;20406;-70
2023/09/23 11:03:10;;;;;;;17.23;4.20;;;;;;;28.85;35.97;94810.75;5090051;28;20032;-70
2023/09/23 11:05:37;;;;;;;13.43;4.10;;;;;;;28.73;36.37;94808.16;5089894;28;20620;-71
2023/09/23 11:08:04;;;;;;;12.65;3.88;;;;;;;29.02;35.50;94813.44;5089986;28;20032;-70
2023/09/23 11:10:30;;;;;;;18.75;4.40;;;;;;;29.14;35.97;94807.03;5091042;28;20027;-70
2023/09/23 11:12:55;;;;;;;14.32;4.13;;;;;;;28.82;35.25;94774.63;5089761;28;20040;-70
2023/09/23 11:15:21;;;;;;;17.50;4.47;;;;;;;29.14;34.73;94798.16;5089737;28;20395;-70
2023/09/23 11:17:46;;;;;;;14.95;4.55;;;;;;;29.03;34.98;94793.66;5091161;28;20516;-70
2023/09/23 11:20:12;;;;;;;13.00;3.75;;;;;;;29.20;34.45;94785.69;5089652;28;20189;-72
2023/09/23 11:22:37;;;;;;;10.95;3.75;;;;;;;29.19;33.80;94776.84;5089714;28;20032;-70